Time;durP1;ratioP1;P1;durP2;ratioP2;P2;SDS_P1;SDS_P2;PMS_P1;PMS_P2;Temp;Humidity;BMP_temperature;BMP_pressure;BME280_temperature;BME280_humidity;BME280_pressure;Samples;Min_cycle;Max_cycle;Signal;HPM_P1;HPM_P2
2023/07/08 00:00:52;;;;;;;3.17;2.87;;;;;;;;;;5070117;28;20178;-58
2023/07/08 00:03:19;;;;;;;3.70;3.40;;;;;;;;;;5069326;28;20678;-58
2023/07/08 00:05:46;;;;;;;3.20;2.90;;;;;;;;;;5052795;28;20222;-58
2023/07/08 00:08:13;;;;;;;3.30;3.00;;;;;;;;;;5049974;28;20163;-58
2023/07/08 00:10:39;;;;;;;4.20;3.47;;;;;;;;;;5050075;28;20577;-58
2023/07/08 00:13:05;;;;;;;3.47;3.07;;;;;;;;;;5050321;28;20212;-58
2023/07/08 00:15:33;;;;;;;3.90;3.60;;;;;;;;;;5049029;28;20205;-58
2023/07/08 00:17:59;;;;;;;2.90;2.70;;;;;;;;;;5049467;28;20570;-58
2023/07/08 00:20:39;;;;;;;3.07;2.87;;;;;;;;;;5049875;28;20305;-58
2023/07/08 00:23:06;;;;;;;4.70;2.93;;;;;;;;;;5050184;28;20491;-58
2023/07/08 00:25:33;;;;;;;3.33;3.03;;;;;;;;;;5049920;28;20167;-58
2023/07/08 00:27:59;;;;;;;3.47;3.20;;;;;;;;;;5050048;28;20637;-58
2023/07/08 00:30:30;;;;;;;3.80;3.50;;;;;;;;;;5050323;28;20181;-59
2023/07/08 00:32:56;;;;;;;3.23;2.87;;;;;;;;;;5048657;28;20173;-58
2023/07/08 00:35:23;;;;;;;3.40;3.10;;;;;;;;;;5050054;28;20642;-58
2023/07/08 00:38:01;;;;;;;2.97;2.77;;;;;;;;;;5049302;28;20181;-58
2023/07/08 00:40:27;;;;;;;3.20;2.90;;;;;;;;;;5049863;28;20663;-58
2023/07/08 00:42:54;;;;;;;4.77;2.97;;;;;;;;;;5049458;28;20169;-58
2023/07/08 00:45:33;;;;;;;3.10;2.80;;;;;;;;;;5049500;28;20200;-58
2023/07/08 00:48:03;;;;;;;3.90;3.60;;;;;;;;;;5048763;28;20162;-58
2023/07/08 00:50:29;;;;;;;3.20;2.97;;;;;;;;;;5049643;28;20184;-58
2023/07/08 00:53:14;;;;;;;3.43;3.13;;;;;;;;;;5049356;28;20170;-58
2023/07/08 00:55:40;;;;;;;3.30;3.00;;;;;;;;;;5049291;28;20174;-58
2023/07/08 00:58:07;;;;;;;3.50;3.20;;;;;;;;;;5049488;28;20193;-58
2023/07/08 01:00:33;;;;;;;4.30;3.83;;;;;;;;;;5049673;28;20204;-58
2023/07/08 01:02:59;;;;;;;3.93;2.90;;;;;;;;;;5048850;28;20170;-58
2023/07/08 01:05:28;;;;;;;3.30;3.00;;;;;;;;;;5049224;28;20209;-59
2023/07/08 01:07:57;;;;;;;3.60;3.30;;;;;;;;;;5049181;28;20228;-58
2023/07/08 01:10:27;;;;;;;3.43;3.13;;;;;;;;;;5049581;28;20187;-59
2023/07/08 01:12:56;;;;;;;3.33;3.13;;;;;;;;;;5047632;28;20188;-58
2023/07/08 01:15:26;;;;;;;3.07;2.83;;;;;;;;;;5049746;28;20176;-58
2023/07/08 01:17:53;;;;;;;3.43;3.23;;;;;;;;;;5048582;28;20173;-58
2023/07/08 01:20:19;;;;;;;3.40;3.10;;;;;;;;;;5049290;28;20213;-58
2023/07/08 01:22:45;;;;;;;3.63;3.33;;;;;;;;;;5049127;28;20173;-58
2023/07/08 01:25:13;;;;;;;3.00;2.80;;;;;;;;;;5047831;28;20535;-58
2023/07/08 01:27:41;;;;;;;3.53;3.23;;;;;;;;;;5049337;28;20163;-58
2023/07/08 01:30:07;;;;;;;4.30;4.00;;;;;;;;;;5049705;28;20215;-58
2023/07/08 01:32:36;;;;;;;3.47;3.17;;;;;;;;;;5048573;28;20188;-59
2023/07/08 01:35:03;;;;;;;3.50;3.20;;;;;;;;;;5049139;28;20211;-58
2023/07/08 01:37:32;;;;;;;3.50;3.20;;;;;;;;;;5047871;28;20170;-58
2023/07/08 01:39:58;;;;;;;3.90;3.60;;;;;;;;;;5049800;28;20191;-58
2023/07/08 01:42:24;;;;;;;4.10;3.70;;;;;;;;;;5049718;28;20180;-58
2023/07/08 01:44:51;;;;;;;4.10;3.37;;;;;;;;;;5048995;28;20170;-58
2023/07/08 01:47:19;;;;;;;3.70;3.50;;;;;;;;;;5048650;28;20640;-58
2023/07/08 01:49:47;;;;;;;3.40;3.17;;;;;;;;;;5049088;28;20606;-57
2023/07/08 01:52:13;;;;;;;3.50;3.20;;;;;;;;;;5065984;28;20479;-58
2023/07/08 01:54:39;;;;;;;3.60;3.30;;;;;;;;;;5069624;28;20584;-58
2023/07/08 01:57:05;;;;;;;3.70;3.40;;;;;;;;;;5071375;28;20288;-58
2023/07/08 01:59:31;;;;;;;3.30;3.00;;;;;;;;;;5072703;28;20197;-58
2023/07/08 02:01:58;;;;;;;3.93;3.30;;;;;;;;;;5071765;28;20231;-58
2023/07/08 02:04:25;;;;;;;3.40;2.87;;;;;;;;;;5053797;28;20198;-58
2023/07/08 02:07:00;;;;;;;3.67;3.17;;;;;;;;;;5072487;28;20165;-58
2023/07/08 02:09:27;;;;;;;2.90;2.70;;;;;;;;;;5072113;28;20259;-58
2023/07/08 02:11:54;;;;;;;3.50;3.20;;;;;;;;;;5072451;28;20174;-57
2023/07/08 02:14:21;;;;;;;3.57;3.27;;;;;;;;;;5072804;28;20816;-58
2023/07/08 02:16:47;;;;;;;3.50;3.20;;;;;;;;;;5072282;28;20192;-58
2023/07/08 02:19:13;;;;;;;3.10;2.90;;;;;;;;;;5071042;28;20208;-58
2023/07/08 02:21:39;;;;;;;3.40;3.10;;;;;;;;;;5071893;28;20172;-58
2023/07/08 02:24:06;;;;;;;3.40;3.10;;;;;;;;;;5072507;28;20569;-58
2023/07/08 02:26:32;;;;;;;3.60;3.30;;;;;;;;;;5072502;28;20781;-58
2023/07/08 02:28:59;;;;;;;4.03;3.40;;;;;;;;;;5072056;28;20169;-58
2023/07/08 02:31:25;;;;;;;3.57;3.27;;;;;;;;;;5071587;28;20200;-58
2023/07/08 02:33:52;;;;;;;3.80;3.40;;;;;;;;;;5071287;28;20677;-58
2023/07/08 02:36:18;;;;;;;3.50;3.20;;;;;;;;;;5071594;28;20176;-58
2023/07/08 02:38:44;;;;;;;3.87;3.40;;;;;;;;;;5053472;28;20187;-58
2023/07/08 02:41:13;;;;;;;3.73;3.43;;;;;;;;;;5071835;28;20161;-58
2023/07/08 02:43:39;;;;;;;3.70;3.40;;;;;;;;;;5072057;28;20561;-58
2023/07/08 02:46:06;;;;;;;3.17;2.87;;;;;;;;;;5072153;28;20635;-58
2023/07/08 02:48:32;;;;;;;3.73;3.43;;;;;;;;;;5070756;28;20230;-58
2023/07/08 02:51:01;;;;;;;4.00;3.30;;;;;;;;;;5071406;28;20180;-59
2023/07/08 02:53:27;;;;;;;3.27;3.00;;;;;;;;;;5071509;28;20164;-58
2023/07/08 02:55:53;;;;;;;3.30;3.00;;;;;;;;;;5071128;28;20232;-58
2023/07/08 02:58:19;;;;;;;3.10;2.90;;;;;;;;;;5071364;28;20238;-58
2023/07/08 03:00:45;;;;;;;3.13;2.93;;;;;;;;;;5071694;28;20219;-58
2023/07/08 03:03:11;;;;;;;4.67;4.30;;;;;;;;;;5069986;28;20204;-58
2023/07/08 03:05:38;;;;;;;3.53;3.23;;;;;;;;;;5054870;28;20197;-58
2023/07/08 03:08:04;;;;;;;3.50;3.20;;;;;;;;;;5050673;28;20180;-58
2023/07/08 03:10:30;;;;;;;3.27;3.00;;;;;;;;;;5051361;28;20251;-58
2023/07/08 03:12:56;;;;;;;3.67;3.37;;;;;;;;;;5051836;28;20241;-58
2023/07/08 03:15:22;;;;;;;3.73;3.43;;;;;;;;;;5051451;28;20169;-58
2023/07/08 03:17:48;;;;;;;3.50;3.20;;;;;;;;;;5050445;28;20662;-59
2023/07/08 03:20:14;;;;;;;3.70;3.40;;;;;;;;;;5050947;28;20197;-59
2023/07/08 03:22:40;;;;;;;3.63;3.33;;;;;;;;;;5051032;28;20162;-59
2023/07/08 03:25:06;;;;;;;3.50;3.30;;;;;;;;;;5051029;28;20621;-59
2023/07/08 03:27:32;;;;;;;3.47;3.17;;;;;;;;;;5050626;28;20161;-59
2023/07/08 03:29:58;;;;;;;3.47;3.27;;;;;;;;;;5049978;28;20165;-58
2023/07/08 03:32:25;;;;;;;3.57;3.27;;;;;;;;;;5049553;28;20181;-58
2023/07/08 03:34:52;;;;;;;3.70;3.40;;;;;;;;;;5050572;28;20204;-58
2023/07/08 03:37:18;;;;;;;3.63;3.33;;;;;;;;;;5051214;28;20170;-59
2023/07/08 03:39:44;;;;;;;3.63;2.97;;;;;;;;;;5050695;28;20526;-58
2023/07/08 03:42:10;;;;;;;3.30;3.00;;;;;;;;;;5050871;28;20177;-59
2023/07/08 03:44:37;;;;;;;5.30;3.20;;;;;;;;;;5050527;28;20222;-59
2023/07/08 03:47:03;;;;;;;4.37;2.87;;;;;;;;;;5049845;28;20260;-58
2023/07/08 03:49:30;;;;;;;3.17;2.93;;;;;;;;;;5050015;28;20189;-59
2023/07/08 03:51:57;;;;;;;3.03;2.80;;;;;;;;;;5050400;28;20162;-59
2023/07/08 03:54:24;;;;;;;3.53;3.23;;;;;;;;;;5050498;28;20165;-59
2023/07/08 03:56:51;;;;;;;4.10;3.00;;;;;;;;;;5050076;28;20236;-57
2023/07/08 03:59:18;;;;;;;3.57;3.27;;;;;;;;;;5050988;28;20653;-58
2023/07/08 04:01:45;;;;;;;3.50;3.20;;;;;;;;;;5048490;28;20178;-58
2023/07/08 04:04:14;;;;;;;3.97;3.43;;;;;;;;;;5054169;28;20209;-58
2023/07/08 04:06:40;;;;;;;3.93;3.30;;;;;;;;;;5052365;28;20208;-58
2023/07/08 04:09:06;;;;;;;4.30;3.73;;;;;;;;;;5070399;28;20168;-58
2023/07/08 04:11:32;;;;;;;4.07;3.20;;;;;;;;;;5070251;28;20278;-59
2023/07/08 04:13:59;;;;;;;4.37;3.97;;;;;;;;;;5070209;28;20190;-58
2023/07/08 04:16:28;;;;;;;3.57;3.27;;;;;;;;;;5069666;28;20167;-58
2023/07/08 04:18:55;;;;;;;3.60;3.30;;;;;;;;;;5069420;28;20177;-58
2023/07/08 04:21:22;;;;;;;4.60;4.30;;;;;;;;;;5069931;28;20184;-58
2023/07/08 04:23:49;;;;;;;3.40;3.20;;;;;;;;;;5070442;28;20172;-58
2023/07/08 04:26:15;;;;;;;3.37;3.10;;;;;;;;;;5069768;28;20256;-58
2023/07/08 04:28:42;;;;;;;3.57;3.23;;;;;;;;;;5069804;28;20533;-59
2023/07/08 04:31:08;;;;;;;4.03;3.70;;;;;;;;;;5070019;28;20168;-58
2023/07/08 04:33:34;;;;;;;4.10;3.67;;;;;;;;;;5068966;28;20251;-58
2023/07/08 04:36:00;;;;;;;3.17;2.97;;;;;;;;;;5070153;28;20175;-58
2023/07/08 04:38:27;;;;;;;3.43;3.13;;;;;;;;;;5051768;28;20328;-59
2023/07/08 04:40:54;;;;;;;3.30;3.00;;;;;;;;;;5069828;28;20198;-58
2023/07/08 04:43:22;;;;;;;3.47;3.17;;;;;;;;;;5070027;28;20260;-58
2023/07/08 04:45:52;;;;;;;3.73;3.43;;;;;;;;;;5069738;28;20176;-57
2023/07/08 04:48:21;;;;;;;3.30;3.10;;;;;;;;;;5069160;28;20169;-58
2023/07/08 04:50:48;;;;;;;3.33;2.87;;;;;;;;;;5069917;28;20206;-57
2023/07/08 04:53:15;;;;;;;4.20;3.40;;;;;;;;;;5069978;28;20183;-58
2023/07/08 04:55:52;;;;;;;3.53;3.23;;;;;;;;;;5069591;28;20651;-58
2023/07/08 04:58:18;;;;;;;3.43;3.13;;;;;;;;;;5069472;28;20184;-58
2023/07/08 05:00:45;;;;;;;4.70;4.40;;;;;;;;;;5069605;28;20558;-59
2023/07/08 05:03:12;;;;;;;3.27;3.07;;;;;;;;;;5069216;28;20230;-59
2023/07/08 05:05:38;;;;;;;4.07;3.13;;;;;;;;;;5069112;28;20197;-59
2023/07/08 05:08:05;;;;;;;3.60;3.30;;;;;;;;;;5069267;28;20183;-59
2023/07/08 05:10:31;;;;;;;3.30;3.00;;;;;;;;;;5066863;28;20185;-58
2023/07/08 05:12:57;;;;;;;3.43;3.13;;;;;;;;;;5049729;28;20178;-59
2023/07/08 05:15:24;;;;;;;3.93;3.40;;;;;;;;;;5064247;28;20648;-60
2023/07/08 05:17:51;;;;;;;3.70;3.40;;;;;;;;;;5069263;28;20177;-60
2023/07/08 05:20:18;;;;;;;3.30;3.00;;;;;;;;;;5069481;28;20217;-60
2023/07/08 05:22:46;;;;;;;3.80;3.50;;;;;;;;;;5069927;28;20607;-60
2023/07/08 05:25:13;;;;;;;4.70;4.07;;;;;;;;;;5069991;28;20157;-60
2023/07/08 05:27:40;;;;;;;4.40;4.00;;;;;;;;;;5069593;28;20184;-60
2023/07/08 05:30:08;;;;;;;3.57;3.27;;;;;;;;;;5069630;28;20157;-60
2023/07/08 05:32:34;;;;;;;3.67;3.37;;;;;;;;;;5072775;28;20702;-60
2023/07/08 05:35:01;;;;;;;2.93;2.73;;;;;;;;;;5073120;28;20271;-60
2023/07/08 05:37:29;;;;;;;3.30;3.03;;;;;;;;;;5073646;28;20192;-60
2023/07/08 05:39:56;;;;;;;3.87;3.57;;;;;;;;;;5072828;28;20536;-60
2023/07/08 05:42:22;;;;;;;3.77;3.47;;;;;;;;;;5055226;28;20570;-60
2023/07/08 05:44:51;;;;;;;3.97;3.57;;;;;;;;;;5072756;28;20255;-60
2023/07/08 05:47:17;;;;;;;3.40;3.10;;;;;;;;;;5072323;28;20153;-60
2023/07/08 05:49:44;;;;;;;3.00;2.80;;;;;;;;;;5073109;28;20658;-60
2023/07/08 05:52:11;;;;;;;3.40;3.10;;;;;;;;;;5055053;28;20183;-60
2023/07/08 05:54:38;;;;;;;3.60;3.10;;;;;;;;;;5072836;28;20538;-60
2023/07/08 05:57:05;;;;;;;3.20;2.90;;;;;;;;;;5072284;28;20235;-60
2023/07/08 05:59:32;;;;;;;2.80;2.60;;;;;;;;;;5072928;28;20200;-60
2023/07/08 06:01:58;;;;;;;3.80;3.37;;;;;;;;;;5072269;28;20172;-60
2023/07/08 06:04:24;;;;;;;3.87;3.33;;;;;;;;;;5066218;28;20197;-60
2023/07/08 06:06:51;;;;;;;3.40;3.10;;;;;;;;;;5052569;28;20215;-60
2023/07/08 06:09:17;;;;;;;3.40;3.10;;;;;;;;;;5052839;28;20460;-60
2023/07/08 06:11:44;;;;;;;3.47;3.17;;;;;;;;;;5050990;28;20220;-60
2023/07/08 06:14:11;;;;;;;3.60;3.30;;;;;;;;;;5052448;28;20235;-60
2023/07/08 06:16:37;;;;;;;3.63;3.33;;;;;;;;;;5050828;28;20201;-60
2023/07/08 06:19:04;;;;;;;3.30;3.10;;;;;;;;;;5051600;28;20296;-60
2023/07/08 06:21:31;;;;;;;3.77;3.43;;;;;;;;;;5052543;28;20253;-60
2023/07/08 06:23:57;;;;;;;3.43;3.17;;;;;;;;;;5052152;28;20248;-60
2023/07/08 06:26:24;;;;;;;3.50;3.20;;;;;;;;;;5052095;28;20211;-60
2023/07/08 06:28:51;;;;;;;3.90;3.60;;;;;;;;;;5051817;28;20315;-60
2023/07/08 06:31:17;;;;;;;4.23;3.17;;;;;;;;;;5050194;28;20570;-61
2023/07/08 06:33:44;;;;;;;3.83;3.53;;;;;;;;;;5050942;28;20166;-60
2023/07/08 06:36:10;;;;;;;3.43;3.20;;;;;;;;;;5052504;28;20176;-60
2023/07/08 06:38:37;;;;;;;2.83;2.63;;;;;;;;;;5052196;28;20170;-60
2023/07/08 06:41:04;;;;;;;4.60;3.60;;;;;;;;;;5051807;28;20192;-61
2023/07/08 06:43:30;;;;;;;3.93;3.63;;;;;;;;;;5050575;28;20677;-60
2023/07/08 06:45:57;;;;;;;4.03;3.63;;;;;;;;;;5051532;28;20200;-60
2023/07/08 06:48:24;;;;;;;3.90;3.60;;;;;;;;;;5051142;28;20629;-60
2023/07/08 06:50:53;;;;;;;3.47;3.17;;;;;;;;;;5051617;28;20166;-60
2023/07/08 06:53:19;;;;;;;6.13;3.70;;;;;;;;;;5050303;28;20181;-60
2023/07/08 06:55:45;;;;;;;4.90;4.27;;;;;;;;;;5051229;28;20166;-59
2023/07/08 06:58:12;;;;;;;4.70;4.30;;;;;;;;;;5050490;28;20536;-60
2023/07/08 07:00:39;;;;;;;4.60;4.20;;;;;;;;;;5051693;28;20724;-61
2023/07/08 07:03:05;;;;;;;4.17;3.73;;;;;;;;;;5050597;28;20184;-60
2023/07/08 07:05:31;;;;;;;4.17;3.77;;;;;;;;;;5053406;28;20758;-60
2023/07/08 07:07:58;;;;;;;4.13;3.57;;;;;;;;;;5071748;28;20653;-60
2023/07/08 07:10:24;;;;;;;4.47;3.83;;;;;;;;;;5071716;28;20685;-60
2023/07/08 07:12:51;;;;;;;4.00;3.70;;;;;;;;;;5071320;28;20516;-60
2023/07/08 07:15:18;;;;;;;4.20;3.90;;;;;;;;;;5071602;28;20166;-60
2023/07/08 07:17:45;;;;;;;4.57;4.17;;;;;;;;;;5070968;28;20664;-60
2023/07/08 07:20:11;;;;;;;4.40;4.10;;;;;;;;;;5070801;28;20194;-60
2023/07/08 07:22:38;;;;;;;4.30;3.93;;;;;;;;;;5071697;28;20162;-59
2023/07/08 07:25:04;;;;;;;3.40;3.10;;;;;;;;;;5071138;28;20662;-60
2023/07/08 07:27:31;;;;;;;4.60;4.20;;;;;;;;;;5070772;28;20197;-60
2023/07/08 07:29:59;;;;;;;4.73;3.60;;;;;;;;;;5070968;28;20186;-60
2023/07/08 07:32:26;;;;;;;4.13;3.80;;;;;;;;;;5070538;28;20180;-59
2023/07/08 07:34:53;;;;;;;4.30;3.97;;;;;;;;;;5070223;28;20264;-60
2023/07/08 07:37:22;;;;;;;4.40;4.00;;;;;;;;;;5070444;28;20190;-59
2023/07/08 07:39:48;;;;;;;4.27;3.87;;;;;;;;;;5070174;28;20192;-60
2023/07/08 07:42:15;;;;;;;4.63;4.23;;;;;;;;;;5070573;28;20291;-60
2023/07/08 07:44:42;;;;;;;4.60;4.20;;;;;;;;;;5052556;28;20166;-60
2023/07/08 07:47:09;;;;;;;5.10;4.60;;;;;;;;;;5069736;28;20243;-60
2023/07/08 07:49:36;;;;;;;4.63;4.23;;;;;;;;;;5070430;28;20227;-60
2023/07/08 07:52:02;;;;;;;6.17;4.90;;;;;;;;;;5052373;28;20189;-60
2023/07/08 07:54:28;;;;;;;6.43;5.30;;;;;;;;;;5069956;28;20296;-58
2023/07/08 07:56:55;;;;;;;6.10;5.50;;;;;;;;;;5069267;28;20308;-57
2023/07/08 07:59:22;;;;;;;6.60;5.63;;;;;;;;;;5069452;28;20208;-58
2023/07/08 08:01:48;;;;;;;6.63;6.03;;;;;;;;;;5069264;28;20223;-59
2023/07/08 08:04:15;;;;;;;5.97;5.37;;;;;;;;;;5068743;28;20197;-59
2023/07/08 08:06:41;;;;;;;8.17;5.77;;;;;;;;;;5069284;28;20161;-58
2023/07/08 08:09:07;;;;;;;7.47;6.60;;;;;;;;;;5068973;28;20161;-57
2023/07/08 08:11:33;;;;;;;6.17;5.50;;;;;;;;;;5051022;28;20161;-57
2023/07/08 08:14:01;;;;;;;6.70;6.10;;;;;;;;;;5069673;28;20173;-57
2023/07/08 08:16:27;;;;;;;6.97;6.07;;;;;;;;;;5068703;28;20623;-57
2023/07/08 08:18:53;;;;;;;7.83;5.83;;;;;;;;;;5050034;28;20162;-57
2023/07/08 08:21:21;;;;;;;6.00;5.50;;;;;;;;;;5069248;28;20245;-57
2023/07/08 08:23:47;;;;;;;7.13;6.07;;;;;;;;;;5068716;28;20182;-57
2023/07/08 08:26:14;;;;;;;6.50;5.90;;;;;;;;;;5069140;28;20625;-59
2023/07/08 08:28:40;;;;;;;6.57;5.90;;;;;;;;;;5068908;28;20178;-57
2023/07/08 08:31:07;;;;;;;7.03;6.23;;;;;;;;;;5069373;28;20229;-58
2023/07/08 08:33:33;;;;;;;6.20;5.60;;;;;;;;;;5068160;28;20162;-58
2023/07/08 08:35:59;;;;;;;6.77;6.00;;;;;;;;;;5069147;28;20531;-58
2023/07/08 08:38:26;;;;;;;6.60;5.90;;;;;;;;;;5068587;28;20317;-58
2023/07/08 08:40:53;;;;;;;9.93;6.33;;;;;;;;;;5069179;28;20623;-59
2023/07/08 08:43:24;;;;;;;7.93;6.20;;;;;;;;;;5068839;28;20191;-58
2023/07/08 08:46:09;;;;;;;6.13;5.50;;;;;;;;;;5069345;28;20166;-58
2023/07/08 08:48:42;;;;;;;6.37;5.33;;;;;;;;;;5068438;28;20586;-58
2023/07/08 08:51:17;;;;;;;7.03;6.30;;;;;;;;;;5069429;28;20639;-58
2023/07/08 08:53:44;;;;;;;6.77;5.87;;;;;;;;;;5050683;28;20258;-58
2023/07/08 08:56:19;;;;;;;6.90;6.20;;;;;;;;;;5069243;28;20254;-58
2023/07/08 08:59:04;;;;;;;6.23;5.63;;;;;;;;;;5069493;28;20185;-59
2023/07/08 09:01:30;;;;;;;6.27;5.70;;;;;;;;;;5068586;28;20186;-59
2023/07/08 09:03:59;;;;;;;6.70;5.83;;;;;;;;;;5065865;28;20199;-58
2023/07/08 09:06:31;;;;;;;9.90;6.37;;;;;;;;;;5051254;28;20172;-58
2023/07/08 09:09:00;;;;;;;7.50;5.93;;;;;;;;;;5053085;28;20597;-58
2023/07/08 09:11:39;;;;;;;7.50;5.97;;;;;;;;;;5053045;28;20809;-58
2023/07/08 09:14:10;;;;;;;8.50;6.40;;;;;;;;;;5053024;28;20536;-58
2023/07/08 09:16:39;;;;;;;6.83;6.13;;;;;;;;;;5052866;28;20216;-58
2023/07/08 09:19:05;;;;;;;7.07;6.47;;;;;;;;;;5052086;28;20182;-58
2023/07/08 09:21:40;;;;;;;6.23;5.73;;;;;;;;;;5052550;28;20170;-57
2023/07/08 09:24:11;;;;;;;6.43;5.70;;;;;;;;;;5052981;28;20159;-58
2023/07/08 09:26:37;;;;;;;6.23;5.63;;;;;;;;;;5052824;28;20161;-57
2023/07/08 09:29:08;;;;;;;5.57;5.07;;;;;;;;;;5051248;28;20196;-58
2023/07/08 09:31:38;;;;;;;6.23;5.63;;;;;;;;;;5052214;28;20180;-57
2023/07/08 09:34:09;;;;;;;6.45;5.70;;;;;;;;;;5051529;28;20181;-58
2023/07/08 09:36:39;;;;;;;6.03;5.47;;;;;;;;;;5052411;28;20189;-58
2023/07/08 09:39:09;;;;;;;6.57;5.97;;;;;;;;;;5052505;28;20276;-58
2023/07/08 09:41:37;;;;;;;6.30;5.80;;;;;;;;;;5052847;28;20178;-58
2023/07/08 09:44:28;;;;;;;6.78;6.05;;;;;;;;;;5052571;28;20169;-59
2023/07/08 09:46:55;;;;;;;8.53;5.53;;;;;;;;;;5051996;28;20154;-59
2023/07/08 09:49:36;;;;;;;8.93;5.82;;;;;;;;;;5052352;28;20196;-58
2023/07/08 09:52:03;;;;;;;6.78;5.32;;;;;;;;;;5052180;28;20172;-58
2023/07/08 09:54:30;;;;;;;6.32;5.38;;;;;;;;;;5052185;28;20697;-58
2023/07/08 09:57:04;;;;;;;6.28;5.68;;;;;;;;;;5051799;28;20229;-59
2023/07/08 09:59:32;;;;;;;6.38;5.47;;;;;;;;;;5051796;28;20271;-58
2023/07/08 10:02:02;;;;;;;6.32;5.70;;;;;;;;;;5051252;28;20165;-59
2023/07/08 10:04:29;;;;;;;5.40;4.90;;;;;;;;;;5057566;28;20201;-58
2023/07/08 10:06:55;;;;;;;6.55;5.85;;;;;;;;;;5053626;28;20659;-59
2023/07/08 10:09:24;;;;;;;5.55;5.05;;;;;;;;;;5071388;28;20267;-59
2023/07/08 10:12:08;;;;;;;6.43;5.85;;;;;;;;;;5072019;28;20689;-57
2023/07/08 10:14:40;;;;;;;5.65;5.10;;;;;;;;;;5071590;28;20169;-58
2023/07/08 10:17:10;;;;;;;5.30;4.90;;;;;;;;;;5070729;28;20175;-57
2023/07/08 10:19:37;;;;;;;5.15;4.65;;;;;;;;;;5071274;28;20215;-58
2023/07/08 10:22:06;;;;;;;5.53;5.03;;;;;;;;;;5071878;28;20234;-58
2023/07/08 10:24:55;;;;;;;6.05;5.50;;;;;;;;;;5071711;28;20196;-58
2023/07/08 10:27:37;;;;;;;5.90;5.40;;;;;;;;;;5060664;28;20614;-59
2023/07/08 10:30:03;;;;;;;6.43;5.03;;;;;;;;;;5071613;28;20164;-59
2023/07/08 10:32:30;;;;;;;5.60;5.10;;;;;;;;;;5070952;28;20188;-58
2023/07/08 10:35:09;;;;;;;5.70;5.20;;;;;;;;;;5070797;28;20194;-58
2023/07/08 10:37:45;;;;;;;4.88;4.47;;;;;;;;;;5071576;28;20180;-59
2023/07/08 10:40:14;;;;;;;5.35;4.85;;;;;;;;;;5053096;28;20291;-59
2023/07/08 10:42:49;;;;;;;5.75;5.20;;;;;;;;;;5071015;28;20184;-58
2023/07/08 10:45:18;;;;;;;5.95;5.35;;;;;;;;;;5070896;28;20179;-59
2023/07/08 10:47:59;;;;;;;5.00;4.60;;;;;;;;;;5052156;28;20604;-58
2023/07/08 10:50:25;;;;;;;5.75;5.25;;;;;;;;;;5070098;28;20183;-59
2023/07/08 10:52:59;;;;;;;6.13;5.05;;;;;;;;;;5071057;28;20174;-58
2023/07/08 10:55:29;;;;;;;5.10;4.60;;;;;;;;;;5071302;28;20172;-59
2023/07/08 10:58:04;;;;;;;5.55;5.05;;;;;;;;;;5070403;28;20765;-59
2023/07/08 11:00:38;;;;;;;4.85;4.38;;;;;;;;;;5070011;28;20261;-59
2023/07/08 11:03:16;;;;;;;5.93;4.80;;;;;;;;;;5069240;28;20478;-60
2023/07/08 11:06:05;;;;;;;5.22;4.72;;;;;;;;;;5069481;28;20527;-60
2023/07/08 11:08:59;;;;;;;5.40;4.85;;;;;;;;;;5051185;28;20203;-60
2023/07/08 11:11:33;;;;;;;5.38;4.88;;;;;;;;;;5048467;28;20637;-60
2023/07/08 11:14:05;;;;;;;5.18;4.70;;;;;;;;;;5069498;28;20161;-60
2023/07/08 11:16:33;;;;;;;4.97;4.57;;;;;;;;;;5069983;28;20283;-59
2023/07/08 11:19:25;;;;;;;5.35;4.88;;;;;;;;;;5069669;28;20226;-59
2023/07/08 11:21:54;;;;;;;5.30;4.10;;;;;;;;;;5066609;28;20211;-59
2023/07/08 11:24:39;;;;;;;6.75;4.88;;;;;;;;;;5052429;28;20579;-59
2023/07/08 11:27:09;;;;;;;4.95;4.55;;;;;;;;;;5070681;28;20635;-59
2023/07/08 11:29:38;;;;;;;5.95;5.32;;;;;;;;;;5069508;28;20172;-60
2023/07/08 11:32:06;;;;;;;5.03;4.53;;;;;;;;;;5069738;28;20263;-60
2023/07/08 11:34:33;;;;;;;5.53;5.03;;;;;;;;;;5069959;28;20171;-59
2023/07/08 11:37:00;;;;;;;5.40;4.90;;;;;;;;;;5070209;28;20161;-60
2023/07/08 11:39:46;;;;;;;7.00;5.07;;;;;;;;;;5070225;28;20223;-59
2023/07/08 11:42:22;;;;;;;5.72;5.22;;;;;;;;;;5070238;28;20176;-59
2023/07/08 11:44:52;;;;;;;5.57;5.07;;;;;;;;;;5070150;28;20172;-59
2023/07/08 11:47:36;;;;;;;6.32;4.95;;;;;;;;;;5069513;28;20157;-59
2023/07/08 11:50:03;;;;;;;5.45;4.97;;;;;;;;;;5069878;28;20504;-60
2023/07/08 11:52:30;;;;;;;6.45;4.93;;;;;;;;;;5069646;28;20164;-59
2023/07/08 11:55:05;;;;;;;5.25;4.78;;;;;;;;;;5069875;28;20169;-60
2023/07/08 11:57:37;;;;;;;5.13;4.65;;;;;;;;;;5069273;28;20232;-59
2023/07/08 12:00:23;;;;;;;5.15;4.75;;;;;;;;;;5051677;28;20195;-60
2023/07/08 12:02:52;;;;;;;5.28;4.82;;;;;;;;;;5069000;28;20319;-59
2023/07/08 12:05:29;;;;;;;5.88;4.68;;;;;;;;;;5069204;28;20207;-59
2023/07/08 12:07:58;;;;;;;5.15;4.65;;;;;;;;;;5069152;28;20165;-59
2023/07/08 12:10:27;;;;;;;4.63;4.22;;;;;;;;;;5069482;28;20170;-61
2023/07/08 12:12:54;;;;;;;5.57;4.85;;;;;;;;;;5069279;28;20184;-60
2023/07/08 12:15:28;;;;;;;5.70;4.38;;;;;;;;;;5069311;28;20153;-60
2023/07/08 12:17:56;;;;;;;5.75;4.80;;;;;;;;;;5068065;28;20260;-60
2023/07/08 12:20:24;;;;;;;5.20;4.80;;;;;;;;;;5069170;28;20196;-60
2023/07/08 12:22:51;;;;;;;5.47;4.97;;;;;;;;;;5069005;28;20162;-59
2023/07/08 12:25:19;;;;;;;5.10;4.65;;;;;;;;;;5069225;28;20157;-60
2023/07/08 12:27:48;;;;;;;5.20;4.70;;;;;;;;;;5068742;28;20149;-60
2023/07/08 12:30:15;;;;;;;5.50;4.97;;;;;;;;;;5068792;28;20167;-60
2023/07/08 12:32:42;;;;;;;5.45;4.95;;;;;;;;;;5068259;28;20157;-60
2023/07/08 12:35:20;;;;;;;4.90;4.50;;;;;;;;;;5068424;28;20667;-59
2023/07/08 12:37:47;;;;;;;5.13;4.63;;;;;;;;;;5069054;28;20164;-59
2023/07/08 12:40:14;;;;;;;5.63;5.15;;;;;;;;;;5068873;28;20189;-59
2023/07/08 12:42:40;;;;;;;5.00;4.50;;;;;;;;;;5069122;28;20169;-59
2023/07/08 12:45:13;;;;;;;5.10;4.60;;;;;;;;;;5069170;28;20165;-59
2023/07/08 12:47:40;;;;;;;6.05;5.55;;;;;;;;;;5068393;28;20188;-60
2023/07/08 12:50:09;;;;;;;5.97;4.90;;;;;;;;;;5068786;28;20488;-59
2023/07/08 12:52:36;;;;;;;5.22;4.82;;;;;;;;;;5051052;28;20223;-60
2023/07/08 12:55:02;;;;;;;5.55;5.05;;;;;;;;;;5068911;28;20171;-59
2023/07/08 12:57:28;;;;;;;5.93;4.80;;;;;;;;;;5069108;28;20274;-59
2023/07/08 12:59:55;;;;;;;5.55;5.07;;;;;;;;;;5050754;28;20196;-58
2023/07/08 13:02:26;;;;;;;6.20;5.32;;;;;;;;;;5068265;28;20250;-59
2023/07/08 13:04:57;;;;;;;5.20;4.80;;;;;;;;;;5068139;28;20279;-59
2023/07/08 13:07:30;;;;;;;7.20;5.15;;;;;;;;;;5069044;28;20275;-59
2023/07/08 13:09:56;;;;;;;5.13;4.72;;;;;;;;;;5068781;28;20581;-59
2023/07/08 13:12:24;;;;;;;5.50;5.00;;;;;;;;;;5068532;28;20248;-59
2023/07/08 13:14:51;;;;;;;5.32;4.85;;;;;;;;;;5068731;28;20184;-60
2023/07/08 13:17:17;;;;;;;5.63;5.07;;;;;;;;;;5067739;28;20295;-59
2023/07/08 13:19:44;;;;;;;5.07;4.53;;;;;;;;;;5068149;28;20216;-60
2023/07/08 13:22:16;;;;;;;4.85;4.43;;;;;;;;;;5068628;28;20232;-59
2023/07/08 13:24:42;;;;;;;5.78;5.28;;;;;;;;;;5068259;28;20181;-60
2023/07/08 13:27:11;;;;;;;5.25;4.65;;;;;;;;;;5067543;28;20601;-60
2023/07/08 13:29:37;;;;;;;5.03;4.38;;;;;;;;;;5067987;28;20188;-59
2023/07/08 13:32:05;;;;;;;4.75;4.22;;;;;;;;;;5067558;28;20188;-60
2023/07/08 13:34:33;;;;;;;4.65;4.25;;;;;;;;;;5068387;28;20169;-60
2023/07/08 13:37:01;;;;;;;5.65;5.15;;;;;;;;;;5068476;28;20243;-59
2023/07/08 13:39:29;;;;;;;5.18;4.68;;;;;;;;;;5068396;28;20200;-59
2023/07/08 13:41:56;;;;;;;5.28;4.88;;;;;;;;;;5068343;28;20153;-59
2023/07/08 13:44:22;;;;;;;4.82;4.43;;;;;;;;;;5050481;28;20233;-59
2023/07/08 13:46:54;;;;;;;5.65;4.82;;;;;;;;;;5068209;28;20176;-59
2023/07/08 13:49:20;;;;;;;5.05;4.55;;;;;;;;;;5068024;28;20149;-60
2023/07/08 13:51:46;;;;;;;5.18;4.68;;;;;;;;;;5069220;28;20511;-59
2023/07/08 13:54:27;;;;;;;5.60;5.10;;;;;;;;;;5072216;28;20165;-59
2023/07/08 13:56:54;;;;;;;5.32;4.82;;;;;;;;;;5071267;28;20625;-59
2023/07/08 13:59:26;;;;;;;5.53;5.03;;;;;;;;;;5071892;28;20168;-59
2023/07/08 14:01:55;;;;;;;5.35;4.85;;;;;;;;;;5070899;28;20183;-59
2023/07/08 14:04:26;;;;;;;5.32;4.90;;;;;;;;;;5071545;28;20192;-60
2023/07/08 14:06:53;;;;;;;5.18;4.68;;;;;;;;;;5071332;28;20180;-59
2023/07/08 14:09:21;;;;;;;5.25;4.78;;;;;;;;;;5053306;28;20179;-59
2023/07/08 14:11:48;;;;;;;5.13;4.72;;;;;;;;;;5071419;28;20165;-59
2023/07/08 14:14:15;;;;;;;4.10;3.80;;;;;;;;;;5071651;28;20157;-59
2023/07/08 14:16:43;;;;;;;7.07;4.57;;;;;;;;;;5070938;28;20176;-59
2023/07/08 14:19:30;;;;;;;4.35;4.03;;;;;;;;;;5071228;28;20520;-59
2023/07/08 14:21:57;;;;;;;5.25;4.80;;;;;;;;;;5071391;28;20226;-59
2023/07/08 14:24:24;;;;;;;6.70;4.70;;;;;;;;;;5071767;28;20196;-60
2023/07/08 14:26:50;;;;;;;4.93;4.25;;;;;;;;;;5071221;28;20159;-58
2023/07/08 14:29:17;;;;;;;5.93;5.32;;;;;;;;;;5071469;28;20176;-59
2023/07/08 14:31:43;;;;;;;5.70;5.10;;;;;;;;;;5071106;28;20176;-58
2023/07/08 14:34:11;;;;;;;5.40;4.90;;;;;;;;;;5070534;28;20165;-59
2023/07/08 14:36:38;;;;;;;5.78;4.70;;;;;;;;;;5071492;28;20208;-59
2023/07/08 14:39:14;;;;;;;5.70;4.78;;;;;;;;;;5071576;28;20156;-59
2023/07/08 14:41:41;;;;;;;5.00;4.53;;;;;;;;;;5070675;28;20165;-60
2023/07/08 14:44:23;;;;;;;5.45;4.95;;;;;;;;;;5071035;28;20196;-59
2023/07/08 14:46:52;;;;;;;5.30;4.80;;;;;;;;;;5070552;28;20157;-59
2023/07/08 14:49:20;;;;;;;5.30;4.88;;;;;;;;;;5070851;28;20523;-59
2023/07/08 14:51:46;;;;;;;5.05;4.65;;;;;;;;;;5070883;28;20153;-59